createdAt,value
2018-10-12T00:00:23.429Z,1006.56
2018-10-12T00:01:23.445Z,1006.59
2018-10-12T00:02:23.473Z,1006.55
2018-10-12T00:03:23.492Z,1006.53
2018-10-12T00:04:23.515Z,1006.64
2018-10-12T00:05:23.538Z,1006.64
2018-10-12T00:06:23.563Z,1006.65
2018-10-12T00:07:23.576Z,1006.66
2018-10-12T00:08:23.594Z,1006.70
2018-10-12T00:09:23.617Z,1006.68
2018-10-12T00:10:23.650Z,1006.73
2018-10-12T00:11:23.658Z,1006.72
2018-10-12T00:12:23.688Z,1006.78
2018-10-12T00:13:23.762Z,1006.72
2018-10-12T00:14:23.735Z,1006.73
2018-10-12T00:15:23.758Z,1006.71
2018-10-12T00:16:23.772Z,1006.78
2018-10-12T00:17:23.803Z,1006.78
2018-10-12T00:18:23.814Z,1006.78
2018-10-12T00:19:23.841Z,1006.74
2018-10-12T00:20:23.861Z,1006.78
2018-10-12T00:21:23.889Z,1006.75
2018-10-12T00:22:23.915Z,1006.79
2018-10-12T00:23:23.921Z,1006.78
2018-10-12T00:24:24.005Z,1006.80
2018-10-12T00:25:23.965Z,1006.75
2018-10-12T00:26:23.983Z,1006.72
2018-10-12T00:27:24.004Z,1006.77
2018-10-12T00:28:24.026Z,1006.75
2018-10-12T00:29:24.046Z,1006.73
2018-10-12T00:30:24.073Z,1006.80
2018-10-12T00:31:24.092Z,1006.83
2018-10-12T00:32:24.117Z,1006.79
2018-10-12T00:33:24.140Z,1006.81
2018-10-12T00:34:24.148Z,1006.85
2018-10-12T00:35:24.171Z,1006.87
2018-10-12T00:36:24.205Z,1006.88
2018-10-12T00:37:24.222Z,1006.88
2018-10-12T00:38:24.241Z,1006.85
2018-10-12T00:39:24.266Z,1006.82
2018-10-12T00:40:24.291Z,1006.82
2018-10-12T00:41:24.299Z,1006.81
2018-10-12T00:42:24.325Z,1006.82
2018-10-12T00:43:24.346Z,1006.80
2018-10-12T00:44:24.369Z,1006.77
2018-10-12T00:45:24.385Z,1006.77
2018-10-12T00:46:24.408Z,1006.75
2018-10-12T00:47:24.431Z,1006.74
2018-10-12T00:48:24.553Z,1006.71
2018-10-12T00:49:24.474Z,1006.70
2018-10-12T00:50:24.494Z,1006.75
2018-10-12T00:51:24.514Z,1006.79
2018-10-12T00:52:24.544Z,1006.86
2018-10-12T00:53:24.558Z,1006.87
2018-10-12T00:54:24.586Z,1006.83
2018-10-12T00:55:24.596Z,1006.82
2018-10-12T00:56:24.623Z,1006.82
2018-10-12T00:57:24.639Z,1006.81
2018-10-12T00:58:24.665Z,1006.87
2018-10-12T00:59:24.680Z,1006.85
2018-10-12T01:00:24.725Z,1006.84
2018-10-12T01:01:24.741Z,1006.83
2018-10-12T01:02:24.744Z,1006.88
2018-10-12T01:03:24.766Z,1006.85
2018-10-12T01:04:24.854Z,1006.82
2018-10-12T01:05:24.806Z,1006.84
2018-10-12T01:06:24.846Z,1006.83
2018-10-12T01:07:24.851Z,1006.85
2018-10-12T01:08:24.875Z,1006.82
2018-10-12T01:09:24.895Z,1006.86
2018-10-12T01:10:24.924Z,1006.85
2018-10-12T01:11:24.937Z,1006.89
2018-10-12T01:12:25.082Z,1006.88
2018-10-12T01:14:25.009Z,1006.87
2018-10-12T01:15:25.025Z,1006.88
2018-10-12T01:16:25.044Z,1006.89
2018-10-12T01:17:25.070Z,1006.91
2018-10-12T01:18:25.087Z,1006.88
2018-10-12T01:19:25.117Z,1006.88
2018-10-12T01:20:25.121Z,1006.90
2018-10-12T01:21:25.162Z,1006.90
2018-10-12T01:22:25.179Z,1006.92
2018-10-12T01:23:25.191Z,1006.95
2018-10-12T01:24:25.217Z,1006.99
2018-10-12T01:25:25.271Z,1007.02
2018-10-12T01:26:25.254Z,1007.01
2018-10-12T01:27:25.283Z,1007.05
2018-10-12T01:28:25.304Z,1007.02
2018-10-12T01:29:25.353Z,1007.08
2018-10-12T01:30:25.343Z,1007.08
2018-10-12T01:31:25.363Z,1007.10
2018-10-12T01:32:25.380Z,1007.09
2018-10-12T01:33:25.403Z,1007.11
2018-10-12T01:34:25.443Z,1007.07
2018-10-12T01:35:25.444Z,1007.12
2018-10-12T01:36:25.467Z,1007.09
2018-10-12T01:37:25.512Z,1007.12
2018-10-12T01:38:25.523Z,1007.09
2018-10-12T01:39:25.534Z,1007.04
2018-10-12T01:40:25.569Z,1007.04
2018-10-12T01:41:25.573Z,1007.04
2018-10-12T01:42:25.597Z,1007.08
2018-10-12T01:43:25.617Z,1007.07
2018-10-12T01:44:25.637Z,1007.08
2018-10-12T01:45:25.659Z,1007.09
2018-10-12T01:46:25.680Z,1007.11
2018-10-12T01:47:25.696Z,1007.13
2018-10-12T01:48:25.719Z,1007.16
2018-10-12T01:49:25.766Z,1007.14
2018-10-12T01:50:25.764Z,1007.12
2018-10-12T01:51:25.788Z,1007.14
2018-10-12T01:52:25.809Z,1007.12
2018-10-12T01:53:25.827Z,1007.11
2018-10-12T01:54:25.847Z,1007.13
2018-10-12T01:55:25.876Z,1007.13
2018-10-12T01:56:25.891Z,1007.12
2018-10-12T01:57:25.913Z,1007.10
2018-10-12T01:58:25.931Z,1007.12
2018-10-12T01:59:25.960Z,1007.11
2018-10-12T02:00:25.978Z,1007.16
2018-10-12T02:01:25.989Z,1007.22
2018-10-12T02:02:26.045Z,1007.20
2018-10-12T02:03:26.024Z,1007.28
2018-10-12T02:04:26.122Z,1007.27
2018-10-12T02:05:26.077Z,1007.27
2018-10-12T02:06:26.096Z,1007.27
2018-10-12T02:07:26.111Z,1007.29
2018-10-12T02:08:26.154Z,1007.27
2018-10-12T02:09:26.164Z,1007.27
2018-10-12T02:10:26.182Z,1007.32
2018-10-12T02:11:26.200Z,1007.34
2018-10-12T02:12:26.227Z,1007.36
2018-10-12T02:13:26.242Z,1007.36
2018-10-12T02:14:26.263Z,1007.35
2018-10-12T02:15:26.289Z,1007.34
2018-10-12T02:16:26.305Z,1007.33
2018-10-12T02:17:26.320Z,1007.31
2018-10-12T02:18:26.347Z,1007.35
2018-10-12T02:19:26.375Z,1007.31
2018-10-12T02:20:26.397Z,1007.33
2018-10-12T02:21:26.406Z,1007.32
2018-10-12T02:22:26.438Z,1007.34
2018-10-12T02:23:26.448Z,1007.33
2018-10-12T02:24:26.465Z,1007.34
2018-10-12T02:25:26.488Z,1007.40
2018-10-12T02:26:26.512Z,1007.41
2018-10-12T02:27:26.536Z,1007.44
2018-10-12T02:28:26.561Z,1007.47
2018-10-12T02:29:26.580Z,1007.54
2018-10-12T02:30:26.596Z,1007.56
2018-10-12T02:31:26.617Z,1007.58
2018-10-12T02:32:26.633Z,1007.66
2018-10-12T02:33:26.661Z,1007.62
2018-10-12T02:34:26.677Z,1007.67
2018-10-12T02:35:26.701Z,1007.74
2018-10-12T02:36:26.722Z,1007.77
2018-10-12T02:37:26.746Z,1007.81
2018-10-12T02:38:26.759Z,1007.87
2018-10-12T02:39:26.774Z,1007.85
2018-10-12T02:40:26.812Z,1007.81
2018-10-12T02:41:26.827Z,1007.84
2018-10-12T02:42:26.846Z,1007.80
2018-10-12T02:43:26.907Z,1007.83
2018-10-12T02:44:26.887Z,1007.82
2018-10-12T02:45:26.907Z,1007.86
2018-10-12T02:46:26.930Z,1007.85
2018-10-12T02:47:26.949Z,1007.89
2018-10-12T02:48:26.976Z,1007.86
2018-10-12T02:49:26.992Z,1007.87
2018-10-12T02:50:27.015Z,1007.90
2018-10-12T02:51:27.033Z,1007.91
2018-10-12T02:52:27.058Z,1007.87
2018-10-12T02:53:27.074Z,1007.84
2018-10-12T02:54:27.105Z,1007.78
2018-10-12T02:55:27.127Z,1007.77
2018-10-12T02:56:27.157Z,1007.76
2018-10-12T02:57:27.163Z,1007.72
2018-10-12T02:58:27.186Z,1007.71
2018-10-12T02:59:27.199Z,1007.71
2018-10-12T03:00:27.222Z,1007.68
2018-10-12T03:01:27.239Z,1007.73
2018-10-12T03:02:27.266Z,1007.65
2018-10-12T03:03:27.272Z,1007.65
2018-10-12T03:04:27.324Z,1007.68
2018-10-12T03:05:27.326Z,1007.69
2018-10-12T03:06:27.349Z,1007.72
2018-10-12T03:07:27.407Z,1007.73
2018-10-12T03:08:27.383Z,1007.70
2018-10-12T03:09:27.409Z,1007.72
2018-10-12T03:10:27.438Z,1007.71
2018-10-12T03:11:27.453Z,1007.72
2018-10-12T03:12:27.473Z,1007.77
2018-10-12T03:13:27.494Z,1007.82
2018-10-12T03:14:27.511Z,1007.86
2018-10-12T03:15:27.532Z,1007.88
2018-10-12T03:16:27.551Z,1007.89
2018-10-12T03:17:27.578Z,1007.88
2018-10-12T03:18:27.604Z,1007.86
2018-10-12T03:19:27.621Z,1007.85
2018-10-12T03:20:27.643Z,1007.84
2018-10-12T03:21:27.657Z,1007.88
2018-10-12T03:22:27.677Z,1007.83
2018-10-12T03:23:27.696Z,1007.89
2018-10-12T03:24:27.724Z,1007.87
2018-10-12T03:25:27.740Z,1007.84
2018-10-12T03:26:27.766Z,1007.87
2018-10-12T03:27:27.778Z,1007.83
2018-10-12T03:28:27.804Z,1007.88
2018-10-12T03:29:27.815Z,1007.89
2018-10-12T03:30:27.847Z,1007.93
2018-10-12T03:31:27.908Z,1007.92
2018-10-12T03:32:27.891Z,1007.92
2018-10-12T03:33:27.912Z,1007.89
2018-10-12T03:34:27.925Z,1007.93
2018-10-12T03:35:27.947Z,1007.85
2018-10-12T03:36:27.969Z,1007.90
2018-10-12T03:37:27.985Z,1007.87
2018-10-12T03:38:28.013Z,1007.86
2018-10-12T03:39:28.042Z,1007.86
2018-10-12T03:40:28.050Z,1007.85
2018-10-12T03:41:28.069Z,1007.85
2018-10-12T03:42:28.124Z,1007.83
2018-10-12T03:43:28.111Z,1007.86
2018-10-12T03:44:28.133Z,1007.85
2018-10-12T03:45:28.158Z,1007.88
2018-10-12T03:46:28.186Z,1007.92
2018-10-12T03:47:28.198Z,1007.93
2018-10-12T03:48:28.223Z,1007.96
2018-10-12T03:49:28.242Z,1008.01
2018-10-12T03:50:28.263Z,1008.00
2018-10-12T03:51:28.276Z,1008.02
2018-10-12T03:52:28.306Z,1008.06
2018-10-12T03:53:28.323Z,1008.02
2018-10-12T03:54:28.340Z,1008.02
2018-10-12T03:55:28.396Z,1007.99
2018-10-12T03:56:28.388Z,1008.05
2018-10-12T03:57:28.404Z,1008.07
2018-10-12T03:58:28.420Z,1008.07
2018-10-12T03:59:28.452Z,1008.12
2018-10-12T04:00:28.461Z,1008.09
2018-10-12T04:01:28.487Z,1008.18
2018-10-12T04:02:28.507Z,1008.19
2018-10-12T04:03:28.534Z,1008.24
2018-10-12T04:04:28.563Z,1008.25
2018-10-12T04:05:28.572Z,1008.30
2018-10-12T04:06:28.593Z,1008.31
2018-10-12T04:07:28.610Z,1008.36
2018-10-12T04:08:28.632Z,1008.41
2018-10-12T04:09:28.654Z,1008.42
2018-10-12T04:10:28.674Z,1008.40
2018-10-12T04:11:28.694Z,1008.39
2018-10-12T04:12:28.787Z,1008.42
2018-10-12T04:13:28.741Z,1008.49
2018-10-12T04:14:28.766Z,1008.47
2018-10-12T04:15:28.780Z,1008.54
2018-10-12T04:16:28.797Z,1008.57
2018-10-12T04:17:28.811Z,1008.63
2018-10-12T04:18:28.841Z,1008.58
2018-10-12T04:19:28.859Z,1008.58
2018-10-12T04:20:28.886Z,1008.59
2018-10-12T04:21:28.899Z,1008.60
2018-10-12T04:22:28.922Z,1008.60
2018-10-12T04:23:28.944Z,1008.63
2018-10-12T04:24:28.966Z,1008.63
2018-10-12T04:26:29.007Z,1008.66
2018-10-12T04:27:29.030Z,1008.67
2018-10-12T04:28:29.050Z,1008.72
2018-10-12T04:29:29.065Z,1008.72
2018-10-12T04:30:29.087Z,1008.76
2018-10-12T04:31:29.111Z,1008.76
2018-10-12T04:32:29.121Z,1008.80
2018-10-12T04:33:29.151Z,1008.87
2018-10-12T04:34:29.177Z,1008.83
2018-10-12T04:35:29.183Z,1008.81
2018-10-12T04:36:29.206Z,1008.79
2018-10-12T04:37:29.235Z,1008.78
2018-10-12T04:38:29.275Z,1008.78
2018-10-12T04:39:29.274Z,1008.79
2018-10-12T04:40:29.295Z,1008.79
2018-10-12T04:41:29.318Z,1008.78
2018-10-12T04:42:29.335Z,1008.80
2018-10-12T04:43:29.353Z,1008.81
2018-10-12T04:44:29.375Z,1008.80
2018-10-12T04:45:29.397Z,1008.86
2018-10-12T04:46:29.420Z,1008.85
2018-10-12T04:47:29.431Z,1008.84
2018-10-12T04:48:29.460Z,1008.84
2018-10-12T04:49:29.540Z,1008.87
2018-10-12T04:50:29.504Z,1008.93
2018-10-12T04:51:29.518Z,1008.89
2018-10-12T04:52:29.553Z,1008.92
2018-10-12T04:53:29.562Z,1008.90
2018-10-12T04:54:29.585Z,1008.87
2018-10-12T04:55:29.604Z,1008.91
2018-10-12T04:56:29.623Z,1008.93
2018-10-12T04:57:29.638Z,1008.92
2018-10-12T04:58:29.690Z,1008.92
2018-10-12T04:59:29.689Z,1008.92
2018-10-12T05:00:29.718Z,1008.96
2018-10-12T05:01:29.738Z,1008.96
2018-10-12T05:02:29.750Z,1008.96
2018-10-12T05:03:29.770Z,1008.99
2018-10-12T05:04:29.791Z,1009.07
2018-10-12T05:05:29.806Z,1009.07
2018-10-12T05:06:29.835Z,1009.10
2018-10-12T05:07:29.867Z,1009.15
2018-10-12T05:08:29.874Z,1009.16
2018-10-12T05:09:29.888Z,1009.17
2018-10-12T05:10:29.912Z,1009.21
2018-10-12T05:11:29.943Z,1009.26
2018-10-12T05:12:29.954Z,1009.30
2018-10-12T05:13:30.040Z,1009.28
2018-10-12T05:14:30.001Z,1009.32
2018-10-12T05:15:30.017Z,1009.33
2018-10-12T05:16:30.039Z,1009.40
2018-10-12T05:17:30.058Z,1009.38
2018-10-12T05:18:30.078Z,1009.35
2018-10-12T05:19:30.102Z,1009.40
2018-10-12T05:20:30.120Z,1009.46
2018-10-12T05:21:30.133Z,1009.42
2018-10-12T05:22:30.173Z,1009.43
2018-10-12T05:23:30.179Z,1009.42
2018-10-12T05:24:30.236Z,1009.38
2018-10-12T05:25:30.227Z,1009.39
2018-10-12T05:26:30.292Z,1009.39
2018-10-12T05:27:30.259Z,1009.36
2018-10-12T05:28:30.287Z,1009.38
2018-10-12T05:29:30.310Z,1009.32
2018-10-12T05:30:30.342Z,1009.33
2018-10-12T05:31:30.334Z,1009.38
2018-10-12T05:32:30.362Z,1009.35
2018-10-12T05:33:30.385Z,1009.41
2018-10-12T05:34:30.406Z,1009.44
2018-10-12T05:35:30.422Z,1009.49
2018-10-12T05:36:30.446Z,1009.46
2018-10-12T05:37:30.546Z,1009.49
2018-10-12T05:38:30.489Z,1009.50
2018-10-12T05:39:30.507Z,1009.48
2018-10-12T05:40:30.526Z,1009.46
2018-10-12T05:41:30.549Z,1009.47
2018-10-12T05:42:30.575Z,1009.52
2018-10-12T05:43:30.733Z,1009.55
2018-10-12T05:44:30.617Z,1009.60
2018-10-12T05:45:30.637Z,1009.58
2018-10-12T05:46:30.650Z,1009.58
2018-10-12T05:47:30.666Z,1009.60
2018-10-12T05:48:30.790Z,1009.66
2018-10-12T05:49:30.711Z,1009.66
2018-10-12T05:50:30.732Z,1009.65
2018-10-12T05:51:30.746Z,1009.65
2018-10-12T05:52:30.781Z,1009.67
2018-10-12T05:53:30.797Z,1009.66
2018-10-12T05:54:30.807Z,1009.67
2018-10-12T05:55:30.829Z,1009.63
2018-10-12T05:56:30.847Z,1009.63
2018-10-12T05:57:30.875Z,1009.63
2018-10-12T05:58:30.895Z,1009.66
2018-10-12T05:59:30.922Z,1009.65
2018-10-12T06:00:30.937Z,1009.69
2018-10-12T06:01:30.953Z,1009.68
2018-10-12T06:02:30.975Z,1009.74
2018-10-12T06:03:30.994Z,1009.77
2018-10-12T06:04:31.015Z,1009.80
2018-10-12T06:05:31.041Z,1009.82
2018-10-12T06:06:31.058Z,1009.84
2018-10-12T06:07:31.076Z,1009.84
2018-10-12T06:08:31.100Z,1009.83
2018-10-12T06:09:31.143Z,1009.88
2018-10-12T06:10:31.136Z,1009.85
2018-10-12T06:11:31.226Z,1009.84
2018-10-12T06:12:31.175Z,1009.86
2018-10-12T06:13:31.196Z,1009.85
2018-10-12T06:14:31.224Z,1009.86
2018-10-12T06:15:31.287Z,1009.87
2018-10-12T06:16:31.266Z,1009.88
2018-10-12T06:17:31.277Z,1009.87
2018-10-12T06:18:31.305Z,1009.83
2018-10-12T06:19:31.328Z,1009.88
2018-10-12T06:20:31.336Z,1009.85
2018-10-12T06:21:31.396Z,1009.86
2018-10-12T06:22:31.396Z,1009.93
2018-10-12T06:23:31.419Z,1009.99
2018-10-12T06:24:31.425Z,1010.00
2018-10-12T06:25:31.446Z,1010.02
2018-10-12T06:26:31.459Z,1010.06
2018-10-12T06:27:31.495Z,1010.13
2018-10-12T06:28:31.502Z,1010.14
2018-10-12T06:29:31.528Z,1010.16
2018-10-12T06:30:31.552Z,1010.18
2018-10-12T06:31:31.564Z,1010.19
2018-10-12T06:32:31.587Z,1010.17
2018-10-12T06:33:31.608Z,1010.21
2018-10-12T06:34:31.632Z,1010.18
2018-10-12T06:35:31.649Z,1010.20
2018-10-12T06:36:31.681Z,1010.25
2018-10-12T06:37:31.695Z,1010.25
2018-10-12T06:38:31.716Z,1010.26
2018-10-12T06:39:31.732Z,1010.35
2018-10-12T06:40:31.750Z,1010.37
2018-10-12T06:41:32.036Z,1010.40
2018-10-12T06:42:31.787Z,1010.40
2018-10-12T06:43:31.808Z,1010.46
2018-10-12T06:44:31.841Z,1010.48
2018-10-12T06:45:31.903Z,1010.51
2018-10-12T06:46:31.898Z,1010.55
2018-10-12T06:47:31.888Z,1010.52
2018-10-12T06:48:31.915Z,1010.54
2018-10-12T06:49:31.934Z,1010.56
2018-10-12T06:50:31.978Z,1010.53
2018-10-12T06:51:31.975Z,1010.56
2018-10-12T06:52:31.999Z,1010.60
2018-10-12T06:53:32.022Z,1010.64
2018-10-12T06:54:32.037Z,1010.65
2018-10-12T06:55:32.050Z,1010.65
2018-10-12T06:56:32.083Z,1010.65
2018-10-12T06:57:32.105Z,1010.64
2018-10-12T06:58:32.122Z,1010.54
2018-10-12T06:59:32.147Z,1010.56
2018-10-12T07:00:32.158Z,1010.54
2018-10-12T07:01:32.180Z,1010.52
2018-10-12T07:02:32.210Z,1010.54
2018-10-12T07:03:32.214Z,1010.57
2018-10-12T07:04:32.412Z,1010.57
2018-10-12T07:05:32.278Z,1010.58
2018-10-12T07:06:32.284Z,1010.60
2018-10-12T07:07:32.303Z,1010.56
2018-10-12T07:08:32.383Z,1010.52
2018-10-12T07:09:32.353Z,1010.60
2018-10-12T07:10:32.364Z,1010.58
2018-10-12T07:11:32.390Z,1010.61
2018-10-12T07:12:32.413Z,1010.58
2018-10-12T07:13:32.430Z,1010.58
2018-10-12T07:14:32.455Z,1010.59
2018-10-12T07:15:32.466Z,1010.54
2018-10-12T07:16:32.491Z,1010.57
2018-10-12T07:17:32.507Z,1010.56
2018-10-12T07:18:32.546Z,1010.53
2018-10-12T07:19:32.615Z,1010.57
2018-10-12T07:20:32.571Z,1010.58
2018-10-12T07:21:32.603Z,1010.55
2018-10-12T07:22:32.614Z,1010.54
2018-10-12T07:23:32.638Z,1010.54
2018-10-12T07:24:32.652Z,1010.50
2018-10-12T07:25:32.667Z,1010.55
2018-10-12T07:26:32.697Z,1010.55
2018-10-12T07:28:32.731Z,1010.63
2018-10-12T07:29:32.764Z,1010.64
2018-10-12T07:30:32.787Z,1010.65
2018-10-12T07:31:32.860Z,1010.67
2018-10-12T07:32:32.813Z,1010.65
2018-10-12T07:33:32.842Z,1010.65
2018-10-12T07:34:32.863Z,1010.66
2018-10-12T07:35:32.886Z,1010.66
2018-10-12T07:36:32.897Z,1010.71
2018-10-12T07:37:32.927Z,1010.73
2018-10-12T07:38:32.955Z,1010.70
2018-10-12T07:39:32.967Z,1010.71
2018-10-12T07:40:32.987Z,1010.74
2018-10-12T07:41:33.001Z,1010.72
2018-10-12T07:42:33.139Z,1010.72
2018-10-12T07:43:33.046Z,1010.71
2018-10-12T07:44:33.061Z,1010.73
2018-10-12T07:45:33.089Z,1010.73
2018-10-12T07:46:33.130Z,1010.78
2018-10-12T07:47:33.195Z,1010.79
2018-10-12T07:48:33.146Z,1010.83
2018-10-12T07:49:33.172Z,1010.87
2018-10-12T07:50:33.193Z,1010.88
2018-10-12T07:51:33.203Z,1010.92
2018-10-12T07:52:33.238Z,1010.89
2018-10-12T07:53:33.255Z,1010.97
2018-10-12T07:54:33.271Z,1010.93
2018-10-12T07:55:33.298Z,1010.96
2018-10-12T07:56:33.427Z,1010.95
2018-10-12T07:57:33.352Z,1010.95
2018-10-12T07:58:33.359Z,1011.00
2018-10-12T07:59:33.377Z,1010.96
2018-10-12T08:00:33.434Z,1010.96
2018-10-12T08:01:33.428Z,1010.97
2018-10-12T08:02:33.445Z,1011.01
2018-10-12T08:03:33.463Z,1011.02
2018-10-12T08:04:33.481Z,1011.05
2018-10-12T08:05:33.506Z,1011.10
2018-10-12T08:06:33.576Z,1011.10
2018-10-12T08:07:33.658Z,1011.12
2018-10-12T08:08:33.560Z,1011.11
2018-10-12T08:09:33.628Z,1011.15
2018-10-12T08:10:33.614Z,1011.16
2018-10-12T08:11:33.627Z,1011.17
2018-10-12T08:12:33.648Z,1011.19
2018-10-12T08:13:33.707Z,1011.20
2018-10-12T08:14:33.697Z,1011.26
2018-10-12T08:15:33.728Z,1011.25
2018-10-12T08:16:33.732Z,1011.24
2018-10-12T08:17:33.759Z,1011.27
2018-10-12T08:18:33.773Z,1011.28
2018-10-12T08:19:33.791Z,1011.27
2018-10-12T08:20:34.001Z,1011.29
2018-10-12T08:21:33.833Z,1011.30
2018-10-12T08:22:33.857Z,1011.31
2018-10-12T08:23:33.871Z,1011.32
2018-10-12T08:24:33.925Z,1011.26
2018-10-12T08:25:34.080Z,1011.28
2018-10-12T08:26:33.938Z,1011.26
2018-10-12T08:27:33.958Z,1011.19
2018-10-12T08:28:33.978Z,1011.24
2018-10-12T08:29:34.008Z,1011.22
2018-10-12T08:30:34.028Z,1011.24
2018-10-12T08:31:34.081Z,1011.24
2018-10-12T08:32:34.064Z,1011.24
2018-10-12T08:33:34.113Z,1011.24
2018-10-12T08:34:34.103Z,1011.25
2018-10-12T08:35:34.220Z,1011.29
2018-10-12T08:36:34.221Z,1011.25
2018-10-12T08:37:34.170Z,1011.24
2018-10-12T08:38:34.186Z,1011.27
2018-10-12T08:39:34.217Z,1011.23
2018-10-12T08:40:34.249Z,1011.26
2018-10-12T08:41:34.268Z,1011.28
2018-10-12T08:42:34.284Z,1011.23
2018-10-12T08:43:34.297Z,1011.19
2018-10-12T08:44:34.317Z,1011.22
2018-10-12T08:45:34.339Z,1011.21
2018-10-12T08:46:34.385Z,1011.21
2018-10-12T08:47:34.385Z,1011.20
2018-10-12T08:48:34.403Z,1011.22
2018-10-12T08:49:34.434Z,1011.23
2018-10-12T08:50:34.461Z,1011.24
2018-10-12T08:51:34.467Z,1011.18
2018-10-12T08:52:34.502Z,1011.21
2018-10-12T08:53:34.516Z,1011.22
2018-10-12T08:54:34.532Z,1011.19
2018-10-12T08:55:34.599Z,1011.19
2018-10-12T08:56:34.588Z,1011.19
2018-10-12T08:57:34.597Z,1011.13
2018-10-12T08:58:34.624Z,1011.15
2018-10-12T08:59:34.646Z,1011.19
2018-10-12T09:00:34.676Z,1011.18
2018-10-12T09:01:34.688Z,1011.19
2018-10-12T09:02:34.701Z,1011.18
2018-10-12T09:03:34.722Z,1011.19
2018-10-12T09:04:34.748Z,1011.17
2018-10-12T09:05:34.776Z,1011.20
2018-10-12T09:06:34.785Z,1011.21
2018-10-12T09:07:34.809Z,1011.22
2018-10-12T09:08:34.850Z,1011.25
2018-10-12T09:09:34.864Z,1011.28
2018-10-12T09:10:34.964Z,1011.21
2018-10-12T09:11:34.925Z,1011.22
2018-10-12T09:12:34.921Z,1011.22
2018-10-12T09:13:34.949Z,1011.19
2018-10-12T09:14:34.966Z,1011.19
2018-10-12T09:15:34.986Z,1011.19
2018-10-12T09:16:35.002Z,1011.18
2018-10-12T09:17:35.036Z,1011.18
2018-10-12T09:18:35.061Z,1011.17
2018-10-12T09:19:35.069Z,1011.15
2018-10-12T09:20:35.203Z,1011.24
2018-10-12T09:21:35.131Z,1011.17
2018-10-12T09:22:35.139Z,1011.17
2018-10-12T09:23:35.169Z,1011.18
2018-10-12T09:24:35.183Z,1011.18
2018-10-12T09:25:35.204Z,1011.18
2018-10-12T09:26:35.232Z,1011.18
2018-10-12T09:27:35.267Z,1011.17
2018-10-12T09:28:35.274Z,1011.16
2018-10-12T09:29:35.298Z,1011.16
2018-10-12T09:30:35.317Z,1011.18
2018-10-12T09:31:35.346Z,1011.21
2018-10-12T09:32:35.358Z,1011.18
2018-10-12T09:33:35.380Z,1011.21
2018-10-12T09:34:35.412Z,1011.18
2018-10-12T09:35:35.432Z,1011.14
2018-10-12T09:36:35.545Z,1011.10
2018-10-12T09:37:35.474Z,1011.08
2018-10-12T09:38:35.499Z,1011.09
2018-10-12T09:39:35.513Z,1011.10
2018-10-12T09:40:35.537Z,1011.08
2018-10-12T09:41:35.574Z,1011.07
2018-10-12T09:42:35.585Z,1011.10
2018-10-12T09:43:35.601Z,1011.08
2018-10-12T09:44:35.633Z,1011.11
2018-10-12T09:45:35.650Z,1011.10
2018-10-12T09:46:35.673Z,1011.07
2018-10-12T09:47:35.698Z,1011.10
2018-10-12T09:48:35.724Z,1011.07
2018-10-12T09:49:35.737Z,1011.06
2018-10-12T09:50:35.762Z,1011.10
2018-10-12T09:51:35.789Z,1011.04
2018-10-12T09:52:35.809Z,1011.04
2018-10-12T09:53:35.838Z,1011.09
2018-10-12T09:54:35.855Z,1011.08
2018-10-12T09:55:35.877Z,1011.09
2018-10-12T09:56:35.898Z,1011.11
2018-10-12T09:57:35.914Z,1011.06
2018-10-12T09:58:35.953Z,1011.09
2018-10-12T09:59:35.964Z,1011.09
2018-10-12T10:00:35.989Z,1011.11
2018-10-12T10:01:36.056Z,1011.12
2018-10-12T10:02:36.039Z,1011.11
2018-10-12T10:03:36.057Z,1011.10
2018-10-12T10:04:36.080Z,1011.08
2018-10-12T10:05:36.105Z,1011.06
2018-10-12T10:06:36.121Z,1011.08
2018-10-12T10:07:36.223Z,1011.07
2018-10-12T10:08:36.344Z,1011.09
2018-10-12T10:09:36.194Z,1011.06
2018-10-12T10:10:36.205Z,1011.07
2018-10-12T10:11:36.246Z,1011.02
2018-10-12T10:12:36.261Z,1011.06
2018-10-12T10:13:36.326Z,1011.04
2018-10-12T10:14:36.307Z,1011.02
2018-10-12T10:15:36.396Z,1011.01
2018-10-12T10:16:36.342Z,1011.03
2018-10-12T10:17:36.368Z,1011.00
2018-10-12T10:18:36.386Z,1010.98
2018-10-12T10:19:36.410Z,1011.03
2018-10-12T10:20:36.437Z,1011.05
2018-10-12T10:21:36.452Z,1011.03
2018-10-12T10:22:36.560Z,1011.03
2018-10-12T10:23:36.502Z,1011.05
2018-10-12T10:24:36.561Z,1011.05
2018-10-12T10:25:36.613Z,1011.04
2018-10-12T10:26:36.594Z,1011.06
2018-10-12T10:27:36.648Z,1011.02
2018-10-12T10:28:36.643Z,1011.00
2018-10-12T10:29:36.657Z,1011.04
2018-10-12T10:30:36.683Z,1010.97
2018-10-12T10:31:36.710Z,1011.00
2018-10-12T10:32:36.773Z,1011.00
2018-10-12T10:33:36.786Z,1011.00
2018-10-12T10:34:36.805Z,1010.98
2018-10-12T10:35:36.972Z,1011.01
2018-10-12T10:36:36.798Z,1011.02
2018-10-12T10:37:36.829Z,1011.01
2018-10-12T10:38:36.854Z,1011.03
2018-10-12T10:39:36.864Z,1011.05
2018-10-12T10:40:36.886Z,1011.07
2018-10-12T10:41:36.908Z,1011.07
2018-10-12T10:42:36.942Z,1011.10
2018-10-12T10:43:36.952Z,1011.14
2018-10-12T10:44:36.978Z,1011.13
2018-10-12T10:45:37.011Z,1011.19
2018-10-12T10:46:37.025Z,1011.18
2018-10-12T10:47:37.060Z,1011.14
2018-10-12T10:48:37.128Z,1011.14
2018-10-12T10:49:37.128Z,1011.13
2018-10-12T10:50:37.117Z,1011.10
2018-10-12T10:51:37.138Z,1011.05
2018-10-12T10:52:37.169Z,1011.09
2018-10-12T10:53:37.209Z,1011.02
2018-10-12T10:54:37.235Z,1011.01
2018-10-12T10:55:37.237Z,1011.05
2018-10-12T10:56:37.264Z,1011.05
2018-10-12T10:57:37.314Z,1011.00
2018-10-12T10:58:37.318Z,1011.11
2018-10-12T10:59:37.335Z,1011.07
2018-10-12T11:00:37.370Z,1011.07
2018-10-12T11:01:37.401Z,1011.00
2018-10-12T11:02:37.412Z,1011.03
2018-10-12T11:03:37.437Z,1011.01
2018-10-12T11:04:37.464Z,1010.98
2018-10-12T11:05:37.490Z,1011.01
2018-10-12T11:06:37.526Z,1010.97
2018-10-12T11:07:37.545Z,1010.92
2018-10-12T11:08:37.574Z,1010.93
2018-10-12T11:09:37.604Z,1010.97
2018-10-12T11:10:37.620Z,1010.93
2018-10-12T11:11:37.657Z,1010.95
2018-10-12T11:12:37.734Z,1010.95
2018-10-12T11:13:37.705Z,1010.95
2018-10-12T11:14:37.729Z,1010.96
2018-10-12T11:15:37.760Z,1011.03
2018-10-12T11:16:37.787Z,1010.99
2018-10-12T11:17:37.819Z,1010.93
2018-10-12T11:18:37.859Z,1010.94
2018-10-12T11:19:38.090Z,1010.93
2018-10-12T11:20:37.907Z,1010.95
2018-10-12T11:21:37.946Z,1011.00
2018-10-12T11:22:37.964Z,1011.05
2018-10-12T11:23:39.005Z,1010.99
2018-10-12T11:24:38.132Z,1010.96
2018-10-12T11:25:38.052Z,1010.94
2018-10-12T11:26:38.098Z,1010.86
2018-10-12T11:27:38.107Z,1010.78
2018-10-12T11:28:38.139Z,1010.72
2018-10-12T11:29:38.171Z,1010.73
2018-10-12T11:30:38.203Z,1010.74
2018-10-12T11:31:38.233Z,1010.72
2018-10-12T11:32:38.313Z,1010.71
2018-10-12T11:33:38.286Z,1010.67
2018-10-12T11:34:38.331Z,1010.67
2018-10-12T11:35:38.342Z,1010.66
2018-10-12T11:36:38.373Z,1010.67
2018-10-12T11:37:38.419Z,1010.64
2018-10-12T11:38:38.430Z,1010.63
2018-10-12T11:39:38.459Z,1010.65
2018-10-12T11:40:38.496Z,1010.61
2018-10-12T11:41:38.517Z,1010.60
2018-10-12T11:42:38.542Z,1010.58
2018-10-12T11:43:38.576Z,1010.56
2018-10-12T11:44:38.606Z,1010.57
2018-10-12T11:45:38.626Z,1010.54
2018-10-12T11:46:38.656Z,1010.55
2018-10-12T11:47:38.682Z,1010.51
2018-10-12T11:48:38.729Z,1010.50
2018-10-12T11:49:38.748Z,1010.50
2018-10-12T11:50:38.790Z,1010.47
2018-10-12T11:51:38.802Z,1010.45
2018-10-12T11:52:38.835Z,1010.43
2018-10-12T11:53:38.859Z,1010.48
2018-10-12T11:54:38.903Z,1010.44
2018-10-12T11:55:38.901Z,1010.48
2018-10-12T11:56:38.941Z,1010.49
2018-10-12T11:57:38.967Z,1010.47
2018-10-12T11:58:38.997Z,1010.43
2018-10-12T11:59:39.011Z,1010.40
2018-10-12T12:00:39.033Z,1010.37
2018-10-12T12:01:39.099Z,1010.37
2018-10-12T12:02:39.098Z,1010.36
2018-10-12T12:03:39.115Z,1010.35
2018-10-12T12:04:39.161Z,1010.36
2018-10-12T12:05:39.176Z,1010.34
2018-10-12T12:06:39.199Z,1010.33
2018-10-12T12:07:39.225Z,1010.34
2018-10-12T12:08:39.242Z,1010.36